createdAt,value
2018-11-13T00:01:39.340Z,50.43
2018-11-13T00:04:08.905Z,42.37
2018-11-13T00:06:46.111Z,32.10
2018-11-13T00:09:16.119Z,33.93
2018-11-13T00:11:46.218Z,36.13
2018-11-13T00:14:15.867Z,29.27
2018-11-13T00:16:45.654Z,26.50
2018-11-13T00:19:15.404Z,22.57
2018-11-13T00:21:45.098Z,27.53
2018-11-13T00:24:15.637Z,55.83
2018-11-13T00:26:45.343Z,42.03
2018-11-13T00:29:16.286Z,52.90
2018-11-13T00:31:45.856Z,42.87
2018-11-13T00:34:15.505Z,25.97
2018-11-13T00:36:45.192Z,41.70
2018-11-13T00:39:14.988Z,30.13
2018-11-13T00:41:44.670Z,42.90
2018-11-13T00:44:14.418Z,68.07
2018-11-13T00:46:44.202Z,31.97
2018-11-13T00:49:13.924Z,36.67
2018-11-13T00:51:43.629Z,48.57
2018-11-13T00:54:13.225Z,85.13
2018-11-13T00:56:45.049Z,60.90
2018-11-13T00:59:15.049Z,29.97
2018-11-13T01:01:44.726Z,33.03
2018-11-13T01:04:14.747Z,42.53
2018-11-13T01:06:44.458Z,62.17
2018-11-13T01:09:14.073Z,112.80
2018-11-13T01:11:43.761Z,79.93
2018-11-13T01:14:13.524Z,97.07
2018-11-13T01:16:43.191Z,57.73
2018-11-13T01:19:13.350Z,58.57
2018-11-13T01:21:42.990Z,49.53
2018-11-13T01:24:12.619Z,140.00
2018-11-13T01:26:42.296Z,133.70
2018-11-13T01:29:11.994Z,87.77
2018-11-13T01:31:57.545Z,93.37
2018-11-13T01:34:27.258Z,76.83
2018-11-13T01:36:57.188Z,69.63
2018-11-13T01:39:26.966Z,61.93
2018-11-13T01:41:56.663Z,146.17
2018-11-13T01:44:26.581Z,117.73
2018-11-13T01:46:56.323Z,142.10
2018-11-13T01:49:26.121Z,122.13
2018-11-13T01:51:55.738Z,128.10
2018-11-13T01:54:25.613Z,130.20
2018-11-13T01:56:55.235Z,67.03
2018-11-13T01:59:24.931Z,89.00
2018-11-13T02:01:54.658Z,49.90
2018-11-13T02:04:24.439Z,39.33
2018-11-13T02:06:54.584Z,80.13
2018-11-13T02:09:32.307Z,74.50
2018-11-13T02:12:01.919Z,80.00
2018-11-13T02:14:31.614Z,30.00
2018-11-13T02:17:01.331Z,66.37
2018-11-13T02:19:31.974Z,77.40
2018-11-13T02:22:02.469Z,106.53
2018-11-13T02:24:33.350Z,125.00
2018-11-13T02:27:04.058Z,73.20
2018-11-13T02:29:33.938Z,79.70
2018-11-13T02:32:06.039Z,81.27
2018-11-13T02:34:35.943Z,73.40
2018-11-13T02:37:06.035Z,46.77
2018-11-13T02:39:35.724Z,55.73
2018-11-13T02:42:06.028Z,25.13
2018-11-13T02:44:36.022Z,46.23
2018-11-13T02:47:06.004Z,20.97
2018-11-13T02:49:35.686Z,42.63
2018-11-13T02:52:05.427Z,23.63
2018-11-13T02:54:35.114Z,40.63
2018-11-13T02:57:04.755Z,45.63
2018-11-13T02:59:34.328Z,35.60
2018-11-13T03:02:04.006Z,40.37
2018-11-13T03:04:33.679Z,46.60
2018-11-13T03:07:03.490Z,63.03
2018-11-13T03:09:33.299Z,92.57
2018-11-13T03:12:03.017Z,57.53
2018-11-13T03:14:32.752Z,49.47
2018-11-13T03:17:02.551Z,22.50
2018-11-13T03:19:32.433Z,44.70
2018-11-13T03:22:02.103Z,39.03
2018-11-13T03:24:31.764Z,42.43
2018-11-13T03:27:01.400Z,47.90
2018-11-13T03:29:31.107Z,30.23
2018-11-13T03:32:00.800Z,45.30
2018-11-13T03:34:30.699Z,74.87
2018-11-13T03:37:00.336Z,40.00
2018-11-13T03:39:44.274Z,68.40
2018-11-13T03:42:13.874Z,38.30
2018-11-13T03:44:43.570Z,42.77
2018-11-13T03:47:13.209Z,49.00
2018-11-13T03:49:43.306Z,42.87
2018-11-13T03:52:12.983Z,18.67
2018-11-13T03:54:42.615Z,26.07
2018-11-13T03:57:12.368Z,27.23
2018-11-13T03:59:41.971Z,47.00
2018-11-13T04:02:11.502Z,59.20
2018-11-13T04:04:48.550Z,110.93
2018-11-13T04:07:18.211Z,68.00
2018-11-13T04:09:47.875Z,67.13
2018-11-13T04:12:17.607Z,49.77
2018-11-13T04:14:47.351Z,57.87
2018-11-13T04:17:16.995Z,63.23
2018-11-13T04:19:46.699Z,28.60
2018-11-13T04:22:16.365Z,18.77
2018-11-13T04:24:45.999Z,34.67
2018-11-13T04:27:15.658Z,29.63
2018-11-13T04:29:45.316Z,33.03
2018-11-13T04:32:14.979Z,36.00
2018-11-13T04:34:44.676Z,27.27
2018-11-13T04:37:14.370Z,27.87
2018-11-13T04:39:46.014Z,26.57
2018-11-13T04:42:15.674Z,31.47
2018-11-13T04:44:45.574Z,30.17
2018-11-13T04:50:04.302Z,14.30
2018-11-13T04:52:53.896Z,25.10
2018-11-13T04:55:23.812Z,28.90
2018-11-13T04:57:53.142Z,17.73
2018-11-13T05:03:15.174Z,16.60
2018-11-13T05:05:44.554Z,14.57
2018-11-13T05:08:13.864Z,9.40
2018-11-13T05:10:43.170Z,8.93
2018-11-13T05:13:12.502Z,8.23
2018-11-13T05:15:41.803Z,10.63
2018-11-13T05:18:11.110Z,16.90
2018-11-13T05:20:44.478Z,10.73
2018-11-13T05:23:13.860Z,21.63
2018-11-13T05:25:43.103Z,21.50
2018-11-13T05:28:12.470Z,26.37
2018-11-13T05:30:41.937Z,40.83
2018-11-13T05:33:11.245Z,39.90
2018-11-13T05:35:40.561Z,30.23
2018-11-13T05:38:09.865Z,26.40
2018-11-13T05:40:39.178Z,31.60
2018-11-13T05:43:08.553Z,48.93
2018-11-13T05:45:38.390Z,16.70
2018-11-13T05:48:07.757Z,26.27
2018-11-13T05:50:37.243Z,31.13
2018-11-13T05:53:07.571Z,23.53
2018-11-13T05:55:37.640Z,12.50
2018-11-13T05:58:07.503Z,10.73
2018-11-13T06:00:37.938Z,11.33
2018-11-13T06:03:07.285Z,9.10
2018-11-13T06:05:36.722Z,7.20
2018-11-13T06:08:17.986Z,9.57
2018-11-13T06:10:48.069Z,9.37
2018-11-13T06:13:27.414Z,9.53
2018-11-13T06:15:56.731Z,8.30
2018-11-13T06:18:26.129Z,8.00
2018-11-13T06:20:55.410Z,9.13
2018-11-13T06:23:24.706Z,8.50
2018-11-13T06:25:55.374Z,8.27
2018-11-13T06:28:24.681Z,9.20
2018-11-13T06:30:53.977Z,9.03
2018-11-13T06:33:23.325Z,11.63
2018-11-13T06:35:52.638Z,8.93
2018-11-13T06:38:21.937Z,9.70
2018-11-13T06:40:51.258Z,9.47
2018-11-13T06:43:20.568Z,12.13
2018-11-13T06:45:55.493Z,12.47
2018-11-13T06:48:24.799Z,9.73
2018-11-13T06:50:54.449Z,11.83
2018-11-13T06:53:23.786Z,11.33
2018-11-13T06:56:03.425Z,10.53
2018-11-13T06:58:33.070Z,12.87
2018-11-13T07:01:02.377Z,12.33
2018-11-13T07:03:35.892Z,13.93
2018-11-13T07:06:12.490Z,13.10
2018-11-13T07:08:41.833Z,9.43
2018-11-13T07:11:11.245Z,10.03
2018-11-13T07:13:40.672Z,10.73
2018-11-13T07:16:10.030Z,8.23
2018-11-13T07:18:39.362Z,9.83
2018-11-13T07:21:08.670Z,11.77
2018-11-13T07:23:38.005Z,13.97
2018-11-13T07:26:08.046Z,8.43
2018-11-13T07:28:37.372Z,9.70
2018-11-13T07:31:06.847Z,13.03
2018-11-13T07:33:36.259Z,10.63
2018-11-13T07:36:06.059Z,9.47
2018-11-13T07:41:46.334Z,8.47
2018-11-13T07:44:15.637Z,12.60
2018-11-13T07:46:45.103Z,10.27
2018-11-13T07:49:14.425Z,9.43
2018-11-13T07:51:43.738Z,11.47
2018-11-13T07:54:13.062Z,20.00
2018-11-13T07:56:42.409Z,14.63
2018-11-13T07:59:11.758Z,10.37
2018-11-13T08:01:41.063Z,11.93
2018-11-13T08:04:10.862Z,9.63
2018-11-13T08:06:40.323Z,12.33
2018-11-13T08:09:13.178Z,9.50
2018-11-13T08:11:42.557Z,15.53
2018-11-13T08:14:11.875Z,15.23
2018-11-13T08:16:41.250Z,10.70
2018-11-13T08:19:10.573Z,11.37
2018-11-13T08:24:46.502Z,13.33
2018-11-13T08:27:15.821Z,12.90
2018-11-13T08:29:45.130Z,9.87
2018-11-13T08:32:14.438Z,12.20
2018-11-13T08:34:43.882Z,12.03
2018-11-13T08:37:13.200Z,12.07
2018-11-13T08:39:42.545Z,12.13
2018-11-13T08:42:12.047Z,10.93
2018-11-13T08:44:41.353Z,11.40
2018-11-13T08:47:10.689Z,10.30
2018-11-13T08:49:40.046Z,10.73
2018-11-13T08:52:10.121Z,10.73
2018-11-13T08:54:39.497Z,10.20
2018-11-13T08:57:08.890Z,8.83
2018-11-13T08:59:38.258Z,10.47
2018-11-13T09:02:07.589Z,9.20
2018-11-13T09:04:37.019Z,9.00
2018-11-13T09:07:06.642Z,8.87
2018-11-13T09:09:35.977Z,9.87
2018-11-13T09:12:05.462Z,9.43
2018-11-13T09:14:34.746Z,7.80
2018-11-13T09:17:04.093Z,10.90
2018-11-13T09:19:33.730Z,8.77
2018-11-13T09:22:02.746Z,11.30
2018-11-13T09:24:32.049Z,8.70
2018-11-13T09:27:01.390Z,9.57
2018-11-13T09:29:30.730Z,10.43
2018-11-13T09:32:00.062Z,9.73
2018-11-13T09:34:29.398Z,11.47
2018-11-13T09:36:58.743Z,9.43
2018-11-13T09:39:28.129Z,8.63
2018-11-13T09:41:57.489Z,8.20
2018-11-13T09:44:26.826Z,8.20
2018-11-13T09:46:56.167Z,9.87
2018-11-13T09:49:25.501Z,9.67
2018-11-13T09:51:54.837Z,11.90
2018-11-13T09:54:24.172Z,15.40
2018-11-13T09:56:53.545Z,11.87
2018-11-13T09:59:22.900Z,9.93
2018-11-13T10:01:52.676Z,9.17
2018-11-13T10:04:22.006Z,10.80
2018-11-13T10:06:50.951Z,11.40
2018-11-13T10:09:20.217Z,10.33
2018-11-13T10:11:49.698Z,10.33
2018-11-13T10:14:19.595Z,10.37
2018-11-13T10:16:48.929Z,9.67
2018-11-13T10:19:18.297Z,9.13
2018-11-13T10:21:47.793Z,9.23
2018-11-13T10:24:19.088Z,9.93
2018-11-13T10:26:49.220Z,11.00
2018-11-13T10:29:18.585Z,11.13
2018-11-13T10:31:47.912Z,9.83
2018-11-13T10:34:17.241Z,13.23
2018-11-13T10:36:47.439Z,11.83
2018-11-13T10:39:16.752Z,9.47
2018-11-13T10:41:46.101Z,9.13
2018-11-13T10:44:15.854Z,11.10
2018-11-13T10:46:45.189Z,9.10
2018-11-13T10:49:14.612Z,10.90
2018-11-13T10:51:47.012Z,9.20
2018-11-13T10:54:16.409Z,9.00
2018-11-13T10:56:45.771Z,9.47
2018-11-13T10:59:15.157Z,7.77
2018-11-13T11:01:49.727Z,7.10
2018-11-13T11:04:24.401Z,6.73
2018-11-13T11:06:53.709Z,6.40
2018-11-13T11:09:23.030Z,7.03
2018-11-13T11:11:52.362Z,6.00
2018-11-13T11:14:21.681Z,6.03
2018-11-13T11:16:51.058Z,6.57
2018-11-13T11:19:20.764Z,5.77
2018-11-13T11:21:50.072Z,5.80
2018-11-13T11:24:19.531Z,6.13
2018-11-13T11:26:48.753Z,5.93
2018-11-13T11:29:18.058Z,5.70
2018-11-13T11:31:47.376Z,7.10
2018-11-13T11:34:16.728Z,6.00
2018-11-13T11:36:46.482Z,7.63
2018-11-13T11:39:15.885Z,7.20
2018-11-13T11:41:45.185Z,7.07
2018-11-13T11:44:14.520Z,5.80
2018-11-13T11:46:44.120Z,8.00
2018-11-13T11:49:13.437Z,5.77
2018-11-13T11:51:42.758Z,5.00
2018-11-13T11:54:12.114Z,5.40
2018-11-13T11:56:41.450Z,6.10
2018-11-13T11:59:10.789Z,7.43
2018-11-13T12:01:40.220Z,6.90
2018-11-13T12:04:09.521Z,5.40
2018-11-13T12:06:38.836Z,6.63
2018-11-13T12:09:10.798Z,5.90
2018-11-13T12:11:41.193Z,5.07
2018-11-13T12:14:10.822Z,4.40
2018-11-13T12:16:40.153Z,4.67
2018-11-13T12:19:09.963Z,6.77
2018-11-13T12:21:39.253Z,5.13
2018-11-13T12:24:08.706Z,13.57
2018-11-13T12:26:38.030Z,8.20
2018-11-13T12:29:07.404Z,7.43
2018-11-13T12:31:36.842Z,16.03
2018-11-13T12:34:06.466Z,11.20
2018-11-13T12:36:35.842Z,17.90
2018-11-13T12:39:07.809Z,16.57
2018-11-13T12:41:37.171Z,11.93
2018-11-13T12:44:06.569Z,9.70
2018-11-13T12:46:36.004Z,12.50
2018-11-13T12:49:05.885Z,5.97
2018-11-13T12:51:36.486Z,3.50
2018-11-13T12:54:05.974Z,5.60
2018-11-13T12:56:35.305Z,6.10
2018-11-13T12:59:10.238Z,4.80
2018-11-13T13:01:39.605Z,4.57
2018-11-13T13:04:08.987Z,5.70
2018-11-13T13:06:38.349Z,4.50
2018-11-13T13:09:09.982Z,2.07
2018-11-13T13:11:39.890Z,3.90
2018-11-13T13:14:14.133Z,1.90
2018-11-13T13:16:44.217Z,3.07
2018-11-13T13:19:13.514Z,3.77
2018-11-13T13:21:42.881Z,2.37
2018-11-13T13:24:14.449Z,2.33
2018-11-13T13:26:43.794Z,2.60
2018-11-13T13:29:13.109Z,3.03
2018-11-13T13:31:42.622Z,4.17
2018-11-13T13:34:11.926Z,3.57
2018-11-13T13:36:41.253Z,3.40
2018-11-13T13:39:10.985Z,5.73
2018-11-13T13:41:40.300Z,4.80
2018-11-13T13:44:09.628Z,11.10
2018-11-13T13:46:39.376Z,7.70
2018-11-13T13:49:08.712Z,17.13
2018-11-13T13:51:39.117Z,11.07
2018-11-13T13:54:08.627Z,9.60
2018-11-13T13:56:37.850Z,6.30
2018-11-13T13:59:07.338Z,5.17
2018-11-13T14:01:36.685Z,5.37
2018-11-13T14:04:06.385Z,5.50
2018-11-13T14:06:35.710Z,3.80
2018-11-13T14:09:08.145Z,6.23
2018-11-13T14:11:37.802Z,3.37
2018-11-13T14:14:07.317Z,4.03
2018-11-13T14:16:37.293Z,5.50
2018-11-13T14:19:07.362Z,3.50
2018-11-13T14:21:36.937Z,5.43
2018-11-13T14:24:06.797Z,4.83
2018-11-13T14:26:36.157Z,7.77
2018-11-13T14:29:05.641Z,7.27
2018-11-13T14:31:41.906Z,5.27
2018-11-13T14:34:11.275Z,10.97
2018-11-13T14:36:40.577Z,4.77
2018-11-13T14:39:11.604Z,6.77
2018-11-13T14:41:41.172Z,4.40
2018-11-13T14:44:10.976Z,5.17
2018-11-13T14:46:40.389Z,4.70
2018-11-13T14:49:09.669Z,3.77
2018-11-13T14:54:52.578Z,3.90
2018-11-13T14:57:42.012Z,4.90
2018-11-13T15:00:14.331Z,5.53
2018-11-13T15:02:44.169Z,6.20
2018-11-13T15:05:15.012Z,6.73
2018-11-13T15:07:45.640Z,8.50
2018-11-13T15:10:39.758Z,6.33
2018-11-13T15:13:09.833Z,4.13
2018-11-13T15:15:39.273Z,4.87
2018-11-13T15:18:09.395Z,4.10
2018-11-13T15:20:38.873Z,4.90
2018-11-13T15:23:09.954Z,4.43
2018-11-13T15:25:39.729Z,5.23
2018-11-13T15:28:10.245Z,6.27
2018-11-13T15:30:42.286Z,4.00
2018-11-13T15:36:11.603Z,16.93
2018-11-13T15:38:41.706Z,7.67
2018-11-13T15:41:11.234Z,5.93
2018-11-13T15:43:45.142Z,5.10
2018-11-13T15:46:15.590Z,4.53
2018-11-13T15:48:45.047Z,6.20
2018-11-13T15:51:14.655Z,7.77
2018-11-13T15:53:44.185Z,7.07
2018-11-13T15:56:13.550Z,7.90
2018-11-13T15:58:42.850Z,8.60
2018-11-13T16:01:12.189Z,8.97
2018-11-13T16:03:41.517Z,18.00
2018-11-13T16:06:15.393Z,7.77
2018-11-13T16:08:45.202Z,21.70
2018-11-13T16:11:14.217Z,11.47
2018-11-13T16:13:51.994Z,21.77
2018-11-13T16:16:21.402Z,25.07
2018-11-13T16:18:51.571Z,11.37
2018-11-13T16:21:22.029Z,9.37
2018-11-13T16:24:09.806Z,22.47
2018-11-13T16:26:39.136Z,21.40
2018-11-13T16:29:09.529Z,6.17
2018-11-13T16:31:39.031Z,6.73
2018-11-13T16:34:09.080Z,10.27
2018-11-13T16:36:38.802Z,10.10
2018-11-13T16:39:13.796Z,12.80
2018-11-13T16:41:43.326Z,13.07
2018-11-13T16:44:12.640Z,10.03
2018-11-13T16:46:42.038Z,7.50
2018-11-13T16:49:11.469Z,8.50
2018-11-13T16:51:41.495Z,11.03
2018-11-13T16:54:11.128Z,38.20
2018-11-13T16:56:47.080Z,35.13
2018-11-13T16:59:16.389Z,31.07
2018-11-13T17:01:45.721Z,38.20
2018-11-13T17:04:15.098Z,22.43
2018-11-13T17:06:44.557Z,68.87
2018-11-13T17:09:14.015Z,54.53
2018-11-13T17:11:43.502Z,36.50
2018-11-13T17:14:22.485Z,44.57
2018-11-13T17:16:53.893Z,25.93
2018-11-13T17:19:25.980Z,20.80
2018-11-13T17:21:55.477Z,23.50
2018-11-13T17:24:25.300Z,10.13
2018-11-13T17:26:54.942Z,7.17
2018-11-13T17:29:25.239Z,5.60
2018-11-13T17:32:00.828Z,5.50
2018-11-13T17:34:31.999Z,5.70
2018-11-13T17:37:06.691Z,6.57
2018-11-13T17:39:42.601Z,5.83
2018-11-13T17:42:13.110Z,5.57
2018-11-13T17:44:47.915Z,6.40
2018-11-13T17:47:17.931Z,5.83
2018-11-13T17:49:47.626Z,6.07
2018-11-13T17:52:17.359Z,6.70
2018-11-13T17:54:47.794Z,6.93
2018-11-13T18:00:33.851Z,7.33
2018-11-13T18:03:04.979Z,9.27
2018-11-13T18:05:35.323Z,8.80
2018-11-13T18:08:05.831Z,11.17
2018-11-13T18:10:36.738Z,7.13
2018-11-13T18:13:10.233Z,7.60
2018-11-13T18:15:55.161Z,7.20
2018-11-13T18:18:26.474Z,8.40
2018-11-13T18:21:05.047Z,9.60
2018-11-13T18:23:37.122Z,9.67
2018-11-13T18:26:08.718Z,9.53
2018-11-13T18:28:45.085Z,7.43
2018-11-13T18:31:14.778Z,10.70
2018-11-13T18:33:52.206Z,10.87
2018-11-13T18:36:25.000Z,9.47
2018-11-13T18:39:14.332Z,14.10
2018-11-13T18:41:44.288Z,12.27
2018-11-13T18:44:19.908Z,8.20
2018-11-13T18:47:03.508Z,8.00
2018-11-13T18:49:38.988Z,6.07
2018-11-13T18:52:14.475Z,5.23
2018-11-13T18:54:44.377Z,5.73
2018-11-13T18:57:15.156Z,14.43
2018-11-13T18:59:47.559Z,8.90
2018-11-13T19:02:20.746Z,8.30
2018-11-13T19:04:50.686Z,7.60
2018-11-13T19:07:20.428Z,6.90
2018-11-13T19:09:50.182Z,6.43
2018-11-13T19:12:25.878Z,6.50
2018-11-13T19:14:56.503Z,9.17
2018-11-13T19:17:27.730Z,18.80
2018-11-13T19:19:58.475Z,12.10
2018-11-13T19:22:28.847Z,8.73
2018-11-13T19:24:58.719Z,10.20
2018-11-13T19:27:28.622Z,8.73
2018-11-13T19:29:58.372Z,7.40
2018-11-13T19:32:28.119Z,8.83
2018-11-13T19:34:58.345Z,10.40
2018-11-13T19:37:28.014Z,10.57
2018-11-13T19:39:59.309Z,9.30
2018-11-13T19:42:38.233Z,10.03
2018-11-13T19:45:09.158Z,12.97
2018-11-13T19:47:39.388Z,11.00
2018-11-13T19:50:13.119Z,9.00
2018-11-13T19:52:48.826Z,9.63
2018-11-13T19:55:22.011Z,8.80
2018-11-13T19:58:02.013Z,10.43
2018-11-13T20:00:34.390Z,9.57
2018-11-13T20:03:05.527Z,9.93
2018-11-13T20:05:43.695Z,8.47
2018-11-13T20:08:14.540Z,13.83
2018-11-13T20:10:44.319Z,11.20
2018-11-13T20:13:14.033Z,34.17
2018-11-13T20:15:44.013Z,24.70
2018-11-13T20:18:13.879Z,21.37
2018-11-13T20:20:43.571Z,15.17
2018-11-13T20:23:18.788Z,12.97
2018-11-13T20:25:49.367Z,10.90
2018-11-13T20:28:21.839Z,9.60
2018-11-13T20:30:52.041Z,21.10
2018-11-13T20:33:22.650Z,40.83
2018-11-13T20:35:54.475Z,51.10
2018-11-13T20:38:24.306Z,13.77
2018-11-13T20:40:54.167Z,12.47
2018-11-13T20:43:26.002Z,14.83
2018-11-13T20:45:56.139Z,11.00
2018-11-13T20:48:25.855Z,15.93
2018-11-13T20:51:02.975Z,23.80
2018-11-13T20:53:34.457Z,33.23
2018-11-13T20:56:06.815Z,59.00
2018-11-13T20:58:39.533Z,49.93
2018-11-13T21:01:09.381Z,36.53
2018-11-13T21:04:05.143Z,42.20
2018-11-13T21:06:35.027Z,57.97
2018-11-13T21:09:07.757Z,26.13
2018-11-13T21:11:37.447Z,19.10
2018-11-13T21:14:21.012Z,54.90
2018-11-13T21:16:57.937Z,50.50
2018-11-13T21:19:32.761Z,41.47
2018-11-13T21:22:11.461Z,43.43
2018-11-13T21:24:43.594Z,35.40
2018-11-13T21:27:40.777Z,26.27
2018-11-13T21:30:20.646Z,50.20
2018-11-13T21:32:51.789Z,28.80
2018-11-13T21:35:22.389Z,29.33
2018-11-13T21:37:53.739Z,52.23
2018-11-13T21:40:27.875Z,34.83
2018-11-13T21:42:58.099Z,32.23
2018-11-13T21:45:32.179Z,41.80
2018-11-13T21:48:02.034Z,35.43
2018-11-13T21:50:31.751Z,35.63
2018-11-13T21:53:01.778Z,42.03
2018-11-13T21:55:37.664Z,37.20
2018-11-13T21:58:20.154Z,25.17
2018-11-13T22:01:03.552Z,17.23
2018-11-13T22:03:36.048Z,38.03
2018-11-13T22:06:06.563Z,14.53
2018-11-13T22:08:38.005Z,15.23
2018-11-13T22:11:07.701Z,14.57
2018-11-13T22:13:38.182Z,14.27
2018-11-13T22:16:07.962Z,15.13
2018-11-13T22:18:39.826Z,14.07
2018-11-13T22:21:10.714Z,14.37
2018-11-13T22:23:41.857Z,14.23
2018-11-13T22:26:11.926Z,15.30
2018-11-13T22:28:41.869Z,29.37
2018-11-13T22:31:27.011Z,39.40
2018-11-13T22:33:57.613Z,48.93
2018-11-13T22:36:27.424Z,59.30
2018-11-13T22:38:57.741Z,23.73
2018-11-13T22:41:27.355Z,36.97
2018-11-13T22:43:57.055Z,56.63
2018-11-13T22:46:26.870Z,50.20
2018-11-13T22:48:56.807Z,65.07
2018-11-13T22:51:26.710Z,52.57
2018-11-13T22:53:59.677Z,56.70
2018-11-13T22:56:33.494Z,48.53
2018-11-13T22:59:04.188Z,42.00
2018-11-13T23:04:40.903Z,35.33
2018-11-13T23:07:12.083Z,35.30
2018-11-13T23:09:41.839Z,48.03
2018-11-13T23:12:24.772Z,19.40
2018-11-13T23:14:54.735Z,24.73
2018-11-13T23:17:24.619Z,23.27
2018-11-13T23:19:54.627Z,36.97
2018-11-13T23:22:31.647Z,28.23
2018-11-13T23:25:02.031Z,19.97
2018-11-13T23:27:33.523Z,34.67
2018-11-13T23:30:11.040Z,22.00
2018-11-13T23:32:41.471Z,20.83
2018-11-13T23:35:12.112Z,20.10
2018-11-13T23:37:42.792Z,21.93
2018-11-13T23:40:14.442Z,19.43
2018-11-13T23:43:14.490Z,18.13
2018-11-13T23:45:44.969Z,20.13
2018-11-13T23:48:19.155Z,18.23
2018-11-13T23:50:55.874Z,17.87
2018-11-13T23:53:32.667Z,16.20
2018-11-13T23:56:06.478Z,16.77
2018-11-13T23:58:36.471Z,18.17
